createdAt,value
2022-12-26T00:01:38.913Z,95.90
2022-12-26T00:04:48.771Z,96.00
2022-12-26T00:07:53.368Z,96.00
2022-12-26T00:10:56.588Z,96.00
2022-12-26T00:14:01.403Z,95.90
2022-12-26T00:17:04.262Z,95.90
2022-12-26T00:20:09.671Z,96.00
2022-12-26T00:23:12.555Z,96.00
2022-12-26T00:26:17.215Z,95.90
2022-12-26T00:29:20.301Z,95.90
2022-12-26T00:32:23.137Z,96.00
2022-12-26T00:35:27.298Z,95.80
2022-12-26T00:38:30.850Z,96.10
2022-12-26T00:41:33.689Z,95.60
2022-12-26T00:44:36.578Z,95.80
2022-12-26T00:47:39.399Z,95.90
2022-12-26T00:50:43.639Z,95.40
2022-12-26T00:53:46.506Z,95.40
2022-12-26T00:56:49.347Z,95.40
2022-12-26T00:59:52.167Z,95.20
2022-12-26T01:02:55.226Z,95.40
2022-12-26T01:06:03.337Z,95.40
2022-12-26T01:09:06.178Z,95.40
2022-12-26T01:12:09.008Z,95.10
2022-12-26T01:15:12.505Z,95.20
2022-12-26T01:18:15.302Z,95.20
2022-12-26T01:21:19.448Z,95.20
2022-12-26T01:24:22.261Z,94.90
2022-12-26T01:27:27.324Z,95.20
2022-12-26T01:30:30.166Z,94.60
2022-12-26T01:33:33.267Z,94.70
2022-12-26T01:36:37.427Z,94.80
2022-12-26T01:39:40.411Z,94.60
2022-12-26T01:42:43.297Z,94.60
2022-12-26T01:45:50.008Z,94.30
2022-12-26T01:48:53.121Z,94.50
2022-12-26T01:52:02.788Z,94.30
2022-12-26T01:55:09.337Z,94.40
2022-12-26T01:58:17.759Z,94.30
2022-12-26T02:01:21.457Z,94.10
2022-12-26T02:04:45.140Z,94.10
2022-12-26T02:07:49.356Z,93.90
2022-12-26T02:10:58.065Z,93.90
2022-12-26T02:14:02.701Z,93.90
2022-12-26T02:17:05.907Z,93.80
2022-12-26T02:20:18.117Z,93.90
2022-12-26T02:23:56.542Z,94.00
2022-12-26T02:27:17.231Z,94.00
2022-12-26T02:30:40.370Z,94.10
2022-12-26T02:33:53.439Z,94.10
2022-12-26T02:37:16.571Z,94.00
2022-12-26T02:40:31.229Z,94.20
2022-12-26T02:43:40.510Z,94.10
2022-12-26T02:47:04.001Z,94.10
2022-12-26T02:50:33.672Z,94.10
2022-12-26T02:54:03.281Z,94.20
2022-12-26T02:57:25.256Z,94.50
2022-12-26T03:00:46.398Z,94.80
2022-12-26T03:04:09.281Z,95.10
2022-12-26T03:07:34.780Z,95.20
2022-12-26T03:10:56.066Z,95.70
2022-12-26T03:14:07.499Z,95.50
2022-12-26T03:17:21.882Z,95.60
2022-12-26T03:20:29.565Z,95.70
2022-12-26T03:23:33.029Z,95.60
2022-12-26T03:26:42.011Z,95.40
2022-12-26T03:30:02.747Z,95.60
2022-12-26T03:33:06.016Z,95.60
2022-12-26T03:36:14.533Z,95.50
2022-12-26T03:39:52.018Z,95.30
2022-12-26T03:43:20.987Z,95.20
2022-12-26T03:46:47.268Z,95.10
2022-12-26T03:50:28.018Z,95.00
2022-12-26T03:53:54.062Z,95.10
2022-12-26T03:57:20.087Z,95.10
2022-12-26T04:00:40.222Z,95.10
2022-12-26T04:04:03.529Z,95.20
2022-12-26T04:07:28.272Z,95.20
2022-12-26T04:10:52.663Z,95.40
2022-12-26T04:14:19.085Z,95.40
2022-12-26T04:17:53.457Z,95.40
2022-12-26T04:21:30.410Z,95.40
2022-12-26T04:24:55.826Z,95.30
2022-12-26T04:28:17.713Z,95.20
2022-12-26T04:31:43.948Z,95.20
2022-12-26T04:35:09.600Z,95.10
2022-12-26T04:38:35.003Z,95.10
2022-12-26T04:41:56.652Z,95.30
2022-12-26T04:45:01.678Z,95.50
2022-12-26T04:48:22.522Z,95.60
2022-12-26T04:51:25.563Z,95.70
2022-12-26T04:54:28.443Z,95.80
2022-12-26T04:57:31.250Z,95.70
2022-12-26T05:00:35.388Z,95.60
2022-12-26T05:03:55.878Z,95.60
2022-12-26T05:07:16.890Z,95.40
2022-12-26T05:10:22.643Z,95.40
2022-12-26T05:13:25.480Z,95.20
2022-12-26T05:16:47.833Z,95.30
2022-12-26T05:20:08.313Z,95.20
2022-12-26T05:23:37.119Z,95.10
2022-12-26T05:26:57.399Z,95.10
2022-12-26T05:30:00.217Z,95.00
2022-12-26T05:33:21.969Z,95.00
2022-12-26T05:36:28.656Z,95.20
2022-12-26T05:39:31.490Z,95.40
2022-12-26T05:42:34.346Z,95.90
2022-12-26T05:45:37.177Z,96.00
2022-12-26T05:48:41.428Z,96.20
2022-12-26T05:51:44.283Z,96.70
2022-12-26T05:54:47.131Z,96.60
2022-12-26T05:57:49.979Z,96.90
2022-12-26T06:00:52.829Z,96.70
2022-12-26T06:03:58.806Z,96.90
2022-12-26T06:07:01.640Z,97.10
2022-12-26T06:10:06.413Z,96.90
2022-12-26T06:13:09.360Z,96.60
2022-12-26T06:16:14.503Z,96.30
2022-12-26T06:19:18.817Z,96.30
2022-12-26T06:22:21.630Z,96.70
2022-12-26T06:25:24.477Z,96.90
2022-12-26T06:28:27.578Z,97.00
2022-12-26T06:31:30.563Z,97.00
2022-12-26T06:34:35.080Z,97.20
2022-12-26T06:37:37.907Z,97.00
2022-12-26T06:40:41.321Z,97.00
2022-12-26T06:43:44.935Z,97.00
2022-12-26T06:46:47.883Z,97.10
2022-12-26T06:49:52.075Z,97.20
2022-12-26T06:52:54.956Z,97.10
2022-12-26T06:56:07.037Z,97.00
2022-12-26T06:59:12.886Z,96.90
2022-12-26T07:02:15.918Z,96.50
2022-12-26T07:05:20.206Z,96.60
2022-12-26T07:08:23.032Z,96.90
2022-12-26T07:11:27.417Z,97.10
2022-12-26T07:14:30.286Z,97.00
2022-12-26T07:17:33.112Z,97.00
2022-12-26T07:20:39.157Z,97.10
2022-12-26T07:23:42.969Z,97.10
2022-12-26T07:26:46.252Z,97.20
2022-12-26T07:29:49.208Z,97.40
2022-12-26T07:32:52.013Z,97.40
2022-12-26T07:35:59.776Z,97.50
2022-12-26T07:39:02.615Z,97.30
2022-12-26T07:42:05.638Z,97.10
2022-12-26T07:45:09.776Z,97.50
2022-12-26T07:48:13.116Z,97.70
2022-12-26T07:51:17.539Z,97.40
2022-12-26T07:54:20.592Z,97.60
2022-12-26T07:57:47.372Z,97.50
2022-12-26T08:00:46.476Z,97.70
2022-12-26T08:03:50.213Z,97.10
2022-12-26T08:06:54.423Z,96.90
2022-12-26T08:09:57.241Z,96.50
2022-12-26T08:13:00.065Z,96.40
2022-12-26T08:16:07.100Z,96.20
2022-12-26T08:19:09.994Z,96.10
2022-12-26T08:22:14.186Z,95.80
2022-12-26T08:25:20.212Z,95.90
2022-12-26T08:28:25.118Z,96.10
2022-12-26T08:31:28.124Z,96.20
2022-12-26T08:34:33.652Z,96.50
2022-12-26T08:37:37.794Z,96.50
2022-12-26T08:40:43.523Z,96.30
2022-12-26T08:47:12.878Z,96.00
2022-12-26T08:50:16.153Z,96.00
2022-12-26T08:53:20.306Z,95.60
2022-12-26T08:56:24.852Z,95.70
2022-12-26T08:59:27.728Z,95.60
2022-12-26T09:02:30.705Z,95.30
2022-12-26T09:05:33.732Z,95.00
2022-12-26T09:08:39.282Z,94.80
2022-12-26T09:11:43.016Z,94.70
2022-12-26T09:14:50.224Z,94.50
2022-12-26T09:17:53.176Z,94.40
2022-12-26T09:20:55.977Z,94.10
2022-12-26T09:24:01.576Z,94.10
2022-12-26T09:27:04.539Z,93.50
2022-12-26T09:30:08.521Z,93.20
2022-12-26T09:33:11.392Z,92.90
2022-12-26T09:36:16.272Z,92.50
2022-12-26T09:39:20.416Z,92.50
2022-12-26T09:42:33.307Z,92.30
2022-12-26T09:45:51.237Z,92.20
2022-12-26T09:48:58.924Z,91.50
2022-12-26T09:52:06.833Z,91.30
2022-12-26T09:55:26.400Z,91.40
2022-12-26T09:58:31.975Z,91.30
2022-12-26T10:01:37.145Z,91.00
2022-12-26T10:04:41.479Z,90.80
2022-12-26T10:07:49.113Z,91.10
2022-12-26T10:11:00.980Z,91.10
2022-12-26T10:14:23.324Z,90.00
2022-12-26T10:17:33.730Z,89.00
2022-12-26T10:20:45.541Z,89.80
2022-12-26T10:23:52.194Z,88.10
2022-12-26T10:27:01.822Z,88.50
2022-12-26T10:30:07.261Z,88.00
2022-12-26T10:33:17.721Z,87.70
2022-12-26T10:36:31.850Z,86.60
2022-12-26T10:39:40.441Z,87.30
2022-12-26T10:42:46.334Z,86.60
2022-12-26T10:45:56.819Z,86.30
2022-12-26T10:49:00.547Z,83.10
2022-12-26T10:52:05.233Z,82.80
2022-12-26T10:55:28.119Z,83.30
2022-12-26T10:58:37.630Z,83.30
2022-12-26T11:01:47.687Z,81.90
2022-12-26T11:05:27.407Z,82.50
2022-12-26T11:08:46.228Z,82.00
2022-12-26T11:11:52.924Z,82.20
2022-12-26T11:15:01.688Z,83.10
2022-12-26T11:18:16.053Z,82.90
2022-12-26T11:21:23.859Z,83.30
2022-12-26T11:24:26.674Z,83.90
2022-12-26T11:27:29.501Z,84.00
2022-12-26T11:30:37.864Z,83.20
2022-12-26T11:33:45.534Z,83.60
2022-12-26T11:36:50.664Z,82.80
2022-12-26T11:39:54.403Z,84.70
2022-12-26T11:42:59.862Z,85.20
2022-12-26T11:46:04.143Z,85.70
2022-12-26T11:49:11.547Z,85.20
2022-12-26T11:52:37.772Z,87.00
2022-12-26T11:55:41.155Z,87.00
2022-12-26T11:58:44.622Z,88.60
2022-12-26T12:02:11.436Z,88.90
2022-12-26T12:05:17.131Z,89.90
2022-12-26T12:08:31.445Z,90.80
2022-12-26T12:11:42.793Z,91.70
2022-12-26T12:14:57.268Z,92.40
2022-12-26T12:18:14.020Z,93.40
2022-12-26T12:21:27.265Z,94.80
2022-12-26T12:24:39.943Z,94.90
2022-12-26T12:27:49.260Z,96.90
2022-12-26T12:30:59.942Z,98.60
2022-12-26T12:34:15.364Z,99.30
2022-12-26T12:37:28.378Z,99.90
2022-12-26T12:40:36.768Z,99.90
2022-12-26T12:43:49.169Z,99.90
2022-12-26T12:47:01.779Z,99.90
2022-12-26T12:50:15.255Z,99.90
2022-12-26T12:53:27.492Z,99.90
2022-12-26T12:56:42.495Z,99.90
2022-12-26T12:59:56.065Z,99.90
2022-12-26T13:03:05.082Z,99.90
2022-12-26T13:06:13.157Z,99.90
2022-12-26T13:09:19.816Z,99.90
2022-12-26T13:12:26.381Z,99.90
2022-12-26T13:15:34.690Z,99.90
2022-12-26T13:18:43.425Z,99.90
2022-12-26T13:21:49.576Z,99.90
2022-12-26T13:24:56.760Z,99.90
2022-12-26T13:28:09.446Z,99.90
2022-12-26T13:31:13.657Z,99.90
2022-12-26T13:34:18.235Z,99.90
2022-12-26T13:37:58.067Z,99.90
2022-12-26T13:41:37.414Z,99.90
2022-12-26T13:44:40.061Z,99.90
2022-12-26T13:47:42.921Z,99.90
2022-12-26T13:50:55.154Z,99.90
2022-12-26T13:54:09.923Z,99.90
2022-12-26T13:57:36.326Z,99.90
2022-12-26T14:00:46.244Z,99.90
2022-12-26T14:04:05.586Z,99.90
2022-12-26T14:07:23.473Z,99.90
2022-12-26T14:10:34.624Z,99.90
2022-12-26T14:14:04.614Z,99.90
2022-12-26T14:17:19.487Z,99.90
2022-12-26T14:20:40.029Z,99.90
2022-12-26T14:23:47.876Z,99.90
2022-12-26T14:26:59.225Z,99.90
2022-12-26T14:30:19.983Z,99.90
2022-12-26T14:33:30.383Z,99.90
2022-12-26T14:36:41.013Z,99.90
2022-12-26T14:40:06.953Z,99.90
2022-12-26T14:43:35.874Z,99.90
2022-12-26T14:47:02.692Z,99.90
2022-12-26T14:50:37.076Z,99.90
2022-12-26T14:53:40.087Z,99.90
2022-12-26T14:56:43.581Z,99.90
2022-12-26T15:00:14.045Z,99.90
2022-12-26T15:03:36.582Z,99.90
2022-12-26T15:07:15.449Z,99.90
2022-12-26T15:10:56.935Z,99.90
2022-12-26T15:14:36.256Z,99.90
2022-12-26T15:17:47.182Z,99.90
2022-12-26T15:21:14.697Z,99.90
2022-12-26T15:25:18.110Z,99.90
2022-12-26T15:28:36.828Z,99.90
2022-12-26T15:31:49.058Z,99.90
2022-12-26T15:35:02.518Z,99.90
2022-12-26T15:38:18.388Z,99.90
2022-12-26T15:41:31.345Z,99.90
2022-12-26T15:44:40.664Z,99.90
2022-12-26T15:47:53.055Z,99.90
2022-12-26T15:51:02.381Z,99.90
2022-12-26T15:54:23.231Z,99.90
2022-12-26T15:57:34.098Z,99.90
2022-12-26T16:00:40.049Z,99.90
2022-12-26T16:03:48.153Z,99.90
2022-12-26T16:07:16.813Z,99.90
2022-12-26T16:10:31.906Z,99.90
2022-12-26T16:13:35.170Z,99.90
2022-12-26T16:16:39.139Z,99.90
2022-12-26T16:19:43.221Z,99.90
2022-12-26T16:22:47.295Z,99.90
2022-12-26T16:25:51.657Z,99.90
2022-12-26T16:28:55.923Z,99.90
2022-12-26T16:32:04.394Z,99.90
2022-12-26T16:35:08.813Z,99.90
2022-12-26T16:38:16.759Z,99.90
2022-12-26T16:41:22.024Z,99.90
2022-12-26T16:44:31.056Z,99.90
2022-12-26T16:47:34.660Z,99.90
2022-12-26T16:50:46.530Z,99.90
2022-12-26T16:53:50.738Z,99.90
2022-12-26T16:56:59.140Z,99.90
2022-12-26T17:00:02.047Z,99.90
2022-12-26T17:03:10.562Z,99.90
2022-12-26T17:06:17.995Z,99.90
2022-12-26T17:09:25.026Z,99.90
2022-12-26T17:12:32.032Z,99.90
2022-12-26T17:15:37.407Z,99.90
2022-12-26T17:18:50.582Z,99.90
2022-12-26T17:22:21.884Z,99.90
2022-12-26T17:25:28.050Z,99.90
2022-12-26T17:28:30.960Z,99.90
2022-12-26T17:31:36.915Z,99.90
2022-12-26T17:34:40.697Z,99.90
2022-12-26T17:37:44.437Z,99.90
2022-12-26T17:40:49.927Z,99.90
2022-12-26T17:43:52.939Z,99.90
2022-12-26T17:46:55.866Z,99.90
2022-12-26T17:49:58.898Z,99.90
2022-12-26T17:53:06.949Z,99.90
2022-12-26T17:56:15.374Z,99.90
2022-12-26T17:59:18.268Z,99.90
2022-12-26T18:02:21.845Z,99.90
2022-12-26T18:05:24.841Z,99.90
2022-12-26T18:08:30.321Z,99.90
2022-12-26T18:11:36.064Z,99.90
2022-12-26T18:14:38.910Z,99.90
2022-12-26T18:17:42.132Z,99.90
2022-12-26T18:20:45.003Z,99.90
2022-12-26T18:23:47.841Z,99.90
2022-12-26T18:26:52.054Z,99.90
2022-12-26T18:29:55.099Z,99.90
2022-12-26T18:32:58.261Z,99.90
2022-12-26T18:36:07.301Z,99.90
2022-12-26T18:39:14.744Z,99.90
2022-12-26T18:42:19.955Z,99.90
2022-12-26T18:45:22.873Z,99.90
2022-12-26T18:48:25.808Z,99.90
2022-12-26T18:51:28.829Z,99.90
2022-12-26T18:54:32.230Z,99.90
2022-12-26T18:57:36.407Z,99.90
2022-12-26T19:00:39.410Z,99.90
2022-12-26T19:03:42.927Z,99.90
2022-12-26T19:06:45.772Z,99.90
2022-12-26T19:09:54.872Z,99.90
2022-12-26T19:13:05.866Z,99.90
2022-12-26T19:16:09.379Z,99.90
2022-12-26T19:19:12.305Z,99.90
2022-12-26T19:22:15.145Z,99.90
2022-12-26T19:25:19.250Z,99.90
2022-12-26T19:28:23.414Z,99.90
2022-12-26T19:31:26.343Z,99.90
2022-12-26T19:34:29.219Z,99.90
2022-12-26T19:37:32.157Z,99.90
2022-12-26T19:40:35.195Z,99.90
2022-12-26T19:43:40.019Z,99.90
2022-12-26T19:46:42.839Z,99.90
2022-12-26T19:49:45.675Z,99.90
2022-12-26T19:52:48.501Z,99.90
2022-12-26T19:55:51.304Z,99.90
2022-12-26T19:58:57.005Z,99.90
2022-12-26T20:02:00.202Z,99.90
2022-12-26T20:05:03.248Z,99.90
2022-12-26T20:08:06.507Z,99.90
2022-12-26T20:11:12.519Z,99.90
2022-12-26T20:14:19.338Z,99.90
2022-12-26T20:17:22.320Z,99.90
2022-12-26T20:20:25.179Z,99.90
2022-12-26T20:23:28.050Z,99.90
2022-12-26T20:26:30.880Z,99.90
2022-12-26T20:29:35.080Z,99.90
2022-12-26T20:32:37.896Z,99.90
2022-12-26T20:35:40.710Z,99.90
2022-12-26T20:38:44.413Z,99.90
2022-12-26T20:41:47.797Z,99.90
2022-12-26T20:44:51.992Z,99.70
2022-12-26T20:47:54.820Z,99.50
2022-12-26T20:50:58.549Z,99.10
2022-12-26T20:54:02.579Z,99.10
2022-12-26T20:57:05.544Z,98.70
2022-12-26T21:00:11.585Z,99.00
2022-12-26T21:03:15.634Z,99.30
2022-12-26T21:06:20.327Z,99.90
2022-12-26T21:09:23.271Z,99.90
2022-12-26T21:12:26.147Z,99.90
2022-12-26T21:15:30.374Z,99.90
2022-12-26T21:18:33.236Z,99.90
2022-12-26T21:21:37.901Z,99.90
2022-12-26T21:24:40.749Z,99.90
2022-12-26T21:27:45.595Z,99.90
2022-12-26T21:30:52.846Z,99.90
2022-12-26T21:33:56.491Z,99.90
2022-12-26T21:37:17.599Z,99.90
2022-12-26T21:40:22.997Z,99.90
2022-12-26T21:43:30.351Z,99.90
2022-12-26T21:46:34.646Z,99.90
2022-12-26T21:49:38.085Z,99.90
2022-12-26T21:52:40.918Z,99.90
2022-12-26T21:55:43.776Z,99.90
2022-12-26T21:59:04.084Z,99.90
2022-12-26T22:02:29.920Z,99.90
2022-12-26T22:05:38.008Z,99.90
2022-12-26T22:08:40.870Z,99.90
2022-12-26T22:12:01.311Z,99.90
2022-12-26T22:15:04.939Z,99.90
2022-12-26T22:18:09.213Z,99.90
2022-12-26T22:21:14.212Z,99.90
2022-12-26T22:24:17.376Z,99.90
2022-12-26T22:27:20.225Z,99.90
2022-12-26T22:30:23.076Z,99.90
2022-12-26T22:33:27.709Z,99.90
2022-12-26T22:36:31.492Z,99.90
2022-12-26T22:39:34.338Z,99.90
2022-12-26T22:42:37.188Z,99.90
2022-12-26T22:45:43.042Z,99.90
2022-12-26T22:48:47.722Z,99.90
2022-12-26T22:51:50.592Z,99.90
2022-12-26T22:54:53.508Z,99.90
2022-12-26T22:58:00.660Z,99.90
2022-12-26T23:01:12.964Z,99.90
2022-12-26T23:04:17.775Z,99.90
2022-12-26T23:07:22.343Z,99.90
2022-12-26T23:10:26.555Z,99.90
2022-12-26T23:13:29.982Z,99.90
2022-12-26T23:16:38.628Z,99.90
2022-12-26T23:20:06.693Z,99.90
2022-12-26T23:23:11.467Z,99.90
2022-12-26T23:26:14.761Z,99.90
2022-12-26T23:29:37.279Z,99.90
2022-12-26T23:32:42.494Z,99.90
2022-12-26T23:35:46.739Z,99.90
2022-12-26T23:38:50.150Z,99.90
2022-12-26T23:41:53.031Z,99.90
2022-12-26T23:44:55.944Z,99.90
2022-12-26T23:47:58.828Z,99.90
2022-12-26T23:51:04.215Z,99.90
2022-12-26T23:54:07.127Z,99.90
2022-12-26T23:57:09.978Z,99.90
